sensor_id;sensor_type;location;lat;lon;timestamp;pressure;altitude;pressure_sealevel;temperature;humidity
11198;BME280;5655;48.744;9.162;2023-05-01T00:00:59;96102.63;;;14.37;100.00
11198;BME280;5655;48.744;9.162;2023-05-01T00:03:25;96103.78;;;14.39;100.00
11198;BME280;5655;48.744;9.162;2023-05-01T00:05:50;96099.22;;;14.36;100.00
11198;BME280;5655;48.744;9.162;2023-05-01T00:08:16;96094.56;;;14.37;100.00
11198;BME280;5655;48.744;9.162;2023-05-01T00:10:41;96093.16;;;14.07;100.00
11198;BME280;5655;48.744;9.162;2023-05-01T00:13:07;96096.97;;;14.06;100.00
11198;BME280;5655;48.744;9.162;2023-05-01T00:15:33;96090.41;;;14.18;100.00
11198;BME280;5655;48.744;9.162;2023-05-01T00:17:59;96085.03;;;14.18;100.00
11198;BME280;5655;48.744;9.162;2023-05-01T00:20:28;96083.78;;;14.37;100.00
11198;BME280;5655;48.744;9.162;2023-05-01T00:22:54;96077.72;;;14.19;100.00
11198;BME280;5655;48.744;9.162;2023-05-01T00:25:19;96073.13;;;14.12;100.00
11198;BME280;5655;48.744;9.162;2023-05-01T00:27:45;96078.94;;;14.11;100.00
11198;BME280;5655;48.744;9.162;2023-05-01T00:30:11;96080.09;;;14.06;100.00
11198;BME280;5655;48.744;9.162;2023-05-01T00:32:36;96070.88;;;14.03;100.00
11198;BME280;5655;48.744;9.162;2023-05-01T00:35:02;96065.50;;;14.03;100.00
11198;BME280;5655;48.744;9.162;2023-05-01T00:37:28;96066.28;;;13.97;100.00
11198;BME280;5655;48.744;9.162;2023-05-01T00:39:53;96065.56;;;13.82;100.00
11198;BME280;5655;48.744;9.162;2023-05-01T00:42:19;96053.75;;;13.55;100.00
11198;BME280;5655;48.744;9.162;2023-05-01T00:44:45;96051.00;;;13.73;100.00
11198;BME280;5655;48.744;9.162;2023-05-01T00:47:10;96059.41;;;13.85;100.00
11198;BME280;5655;48.744;9.162;2023-05-01T00:49:36;96056.34;;;13.83;100.00
11198;BME280;5655;48.744;9.162;2023-05-01T00:52:01;96055.56;;;13.86;100.00
11198;BME280;5655;48.744;9.162;2023-05-01T00:54:27;96049.81;;;13.84;100.00
11198;BME280;5655;48.744;9.162;2023-05-01T00:56:53;96046.34;;;13.87;100.00
11198;BME280;5655;48.744;9.162;2023-05-01T00:59:19;96040.63;;;13.78;100.00
11198;BME280;5655;48.744;9.162;2023-05-01T01:01:45;96041.41;;;13.75;100.00
11198;BME280;5655;48.744;9.162;2023-05-01T01:04:11;96041.06;;;13.66;100.00
11198;BME280;5655;48.744;9.162;2023-05-01T01:12:53;96029.34;;;14.04;100.00
11198;BME280;5655;48.744;9.162;2023-05-01T01:15:34;96031.34;;;13.93;100.00
11198;BME280;5655;48.744;9.162;2023-05-01T01:18:15;96025.91;;;14.00;100.00
11198;BME280;5655;48.744;9.162;2023-05-01T01:20:56;96014.00;;;14.01;100.00
11198;BME280;5655;48.744;9.162;2023-05-01T01:34:32;96011.66;;;14.03;100.00
11198;BME280;5655;48.744;9.162;2023-05-01T01:37:02;96024.03;;;13.90;100.00
11198;BME280;5655;48.744;9.162;2023-05-01T01:39:37;96022.59;;;13.64;100.00
11198;BME280;5655;48.744;9.162;2023-05-01T01:42:08;96019.59;;;13.48;100.00
11198;BME280;5655;48.744;9.162;2023-05-01T01:45:00;96014.19;;;13.52;100.00
11198;BME280;5655;48.744;9.162;2023-05-01T01:47:29;96016.47;;;13.64;100.00
11198;BME280;5655;48.744;9.162;2023-05-01T01:49:57;96018.78;;;13.66;100.00
11198;BME280;5655;48.744;9.162;2023-05-01T01:52:25;96012.66;;;13.58;100.00
11198;BME280;5655;48.744;9.162;2023-05-01T01:54:54;96011.50;;;13.52;100.00
11198;BME280;5655;48.744;9.162;2023-05-01T01:57:23;96008.88;;;13.41;100.00
11198;BME280;5655;48.744;9.162;2023-05-01T01:59:50;96006.53;;;13.47;100.00
11198;BME280;5655;48.744;9.162;2023-05-01T02:02:18;96001.16;;;13.47;100.00
11198;BME280;5655;48.744;9.162;2023-05-01T02:04:44;95992.66;;;13.62;100.00
11198;BME280;5655;48.744;9.162;2023-05-01T02:07:11;95999.53;;;13.74;100.00
11198;BME280;5655;48.744;9.162;2023-05-01T02:09:39;96000.28;;;13.78;100.00
11198;BME280;5655;48.744;9.162;2023-05-01T02:12:07;95981.81;;;13.80;100.00
11198;BME280;5655;48.744;9.162;2023-05-01T02:14:33;95978.00;;;13.74;100.00
11198;BME280;5655;48.744;9.162;2023-05-01T02:16:59;95981.03;;;13.83;100.00
11198;BME280;5655;48.744;9.162;2023-05-01T02:19:26;95981.09;;;13.76;100.00
11198;BME280;5655;48.744;9.162;2023-05-01T02:21:54;95978.69;;;13.85;100.00
11198;BME280;5655;48.744;9.162;2023-05-01T02:24:20;95977.94;;;13.88;100.00
11198;BME280;5655;48.744;9.162;2023-05-01T02:26:52;95982.13;;;13.96;100.00
11198;BME280;5655;48.744;9.162;2023-05-01T02:29:19;95983.00;;;13.72;100.00
11198;BME280;5655;48.744;9.162;2023-05-01T02:31:44;95969.63;;;13.61;100.00
11198;BME280;5655;48.744;9.162;2023-05-01T02:34:09;95975.72;;;13.69;100.00
11198;BME280;5655;48.744;9.162;2023-05-01T02:36:35;95966.44;;;13.81;100.00
11198;BME280;5655;48.744;9.162;2023-05-01T02:39:01;95966.44;;;13.84;100.00
11198;BME280;5655;48.744;9.162;2023-05-01T02:41:27;95962.16;;;13.90;100.00
11198;BME280;5655;48.744;9.162;2023-05-01T02:43:56;95961.69;;;14.02;100.00
11198;BME280;5655;48.744;9.162;2023-05-01T02:46:25;95954.06;;;13.97;100.00
11198;BME280;5655;48.744;9.162;2023-05-01T02:48:52;95949.41;;;13.98;100.00
11198;BME280;5655;48.744;9.162;2023-05-01T02:51:19;95953.19;;;14.07;100.00
11198;BME280;5655;48.744;9.162;2023-05-01T02:53:45;95954.72;;;14.12;100.00
11198;BME280;5655;48.744;9.162;2023-05-01T02:56:11;95949.53;;;13.80;100.00
11198;BME280;5655;48.744;9.162;2023-05-01T02:58:37;95951.81;;;13.85;100.00
11198;BME280;5655;48.744;9.162;2023-05-01T03:01:02;95954.81;;;14.01;100.00
11198;BME280;5655;48.744;9.162;2023-05-01T03:03:28;95944.09;;;13.91;100.00
11198;BME280;5655;48.744;9.162;2023-05-01T03:05:53;95944.47;;;13.93;100.00
11198;BME280;5655;48.744;9.162;2023-05-01T03:08:19;95954.09;;;13.90;100.00
11198;BME280;5655;48.744;9.162;2023-05-01T03:10:44;95950.63;;;13.93;100.00
11198;BME280;5655;48.744;9.162;2023-05-01T03:13:10;95954.06;;;13.94;100.00
11198;BME280;5655;48.744;9.162;2023-05-01T03:15:36;95956.84;;;13.80;100.00
11198;BME280;5655;48.744;9.162;2023-05-01T03:18:02;95952.66;;;13.68;100.00
11198;BME280;5655;48.744;9.162;2023-05-01T03:20:27;95954.94;;;13.80;100.00
11198;BME280;5655;48.744;9.162;2023-05-01T03:22:53;95942.75;;;13.58;100.00
11198;BME280;5655;48.744;9.162;2023-05-01T03:25:18;95950.31;;;13.77;100.00
11198;BME280;5655;48.744;9.162;2023-05-01T03:27:43;95943.00;;;13.81;100.00
11198;BME280;5655;48.744;9.162;2023-05-01T03:30:09;95937.28;;;13.76;100.00
11198;BME280;5655;48.744;9.162;2023-05-01T03:32:34;95949.78;;;13.27;100.00
11198;BME280;5655;48.744;9.162;2023-05-01T03:35:01;95939.09;;;13.02;100.00
11198;BME280;5655;48.744;9.162;2023-05-01T03:37:27;95930.63;;;13.04;100.00
11198;BME280;5655;48.744;9.162;2023-05-01T03:39:52;95936.38;;;13.09;100.00
11198;BME280;5655;48.744;9.162;2023-05-01T03:42:18;95928.41;;;12.81;100.00
11198;BME280;5655;48.744;9.162;2023-05-01T03:44:44;95923.75;;;12.92;100.00
11198;BME280;5655;48.744;9.162;2023-05-01T03:47:09;95924.16;;;12.87;100.00
11198;BME280;5655;48.744;9.162;2023-05-01T03:49:35;95921.81;;;13.14;100.00
11198;BME280;5655;48.744;9.162;2023-05-01T03:52:00;95919.81;;;13.25;100.00
11198;BME280;5655;48.744;9.162;2023-05-01T03:54:25;95918.25;;;13.35;100.00
11198;BME280;5655;48.744;9.162;2023-05-01T03:56:51;95915.28;;;13.04;100.00
11198;BME280;5655;48.744;9.162;2023-05-01T03:59:16;95912.94;;;13.28;100.00
11198;BME280;5655;48.744;9.162;2023-05-01T04:01:42;95919.50;;;13.20;100.00
11198;BME280;5655;48.744;9.162;2023-05-01T04:04:08;95919.06;;;13.32;100.00
11198;BME280;5655;48.744;9.162;2023-05-01T04:06:33;95922.88;;;13.31;100.00
11198;BME280;5655;48.744;9.162;2023-05-01T04:08:59;95919.91;;;13.00;100.00
11198;BME280;5655;48.744;9.162;2023-05-01T04:11:25;95922.94;;;13.09;100.00
11198;BME280;5655;48.744;9.162;2023-05-01T04:13:51;95917.19;;;13.14;100.00
11198;BME280;5655;48.744;9.162;2023-05-01T04:16:16;95922.16;;;13.09;100.00
11198;BME280;5655;48.744;9.162;2023-05-01T04:18:42;95918.69;;;13.23;100.00
11198;BME280;5655;48.744;9.162;2023-05-01T04:21:07;95918.34;;;13.13;100.00
11198;BME280;5655;48.744;9.162;2023-05-01T04:23:32;95916.03;;;13.12;100.00
11198;BME280;5655;48.744;9.162;2023-05-01T04:25:58;95913.63;;;13.46;100.00
11198;BME280;5655;48.744;9.162;2023-05-01T04:28:24;95922.09;;;13.34;100.00
11198;BME280;5655;48.744;9.162;2023-05-01T04:30:49;95912.88;;;13.35;100.00
11198;BME280;5655;48.744;9.162;2023-05-01T04:33:14;95922.13;;;13.30;100.00
11198;BME280;5655;48.744;9.162;2023-05-01T04:35:40;95921.00;;;13.28;100.00
11198;BME280;5655;48.744;9.162;2023-05-01T04:38:06;95928.22;;;13.45;100.00
11198;BME280;5655;48.744;9.162;2023-05-01T04:40:32;95920.16;;;13.38;100.00
11198;BME280;5655;48.744;9.162;2023-05-01T04:42:58;95924.44;;;13.28;100.00
11198;BME280;5655;48.744;9.162;2023-05-01T04:45:24;95925.50;;;13.48;100.00
11198;BME280;5655;48.744;9.162;2023-05-01T04:47:49;95934.44;;;13.21;100.00
11198;BME280;5655;48.744;9.162;2023-05-01T04:50:14;95925.97;;;13.33;100.00
11198;BME280;5655;48.744;9.162;2023-05-01T04:52:40;95923.69;;;13.17;100.00
11198;BME280;5655;48.744;9.162;2023-05-01T04:55:06;95926.28;;;13.45;100.00
11198;BME280;5655;48.744;9.162;2023-05-01T04:57:32;95919.13;;;13.10;100.00
11198;BME280;5655;48.744;9.162;2023-05-01T04:59:57;95930.25;;;12.95;100.00
11198;BME280;5655;48.744;9.162;2023-05-01T05:02:23;95927.47;;;13.34;100.00
11198;BME280;5655;48.744;9.162;2023-05-01T05:04:48;95924.88;;;13.20;100.00
11198;BME280;5655;48.744;9.162;2023-05-01T05:07:14;95929.88;;;13.10;100.00
11198;BME280;5655;48.744;9.162;2023-05-01T05:09:39;95929.75;;;13.39;100.00
11198;BME280;5655;48.744;9.162;2023-05-01T05:12:05;95923.72;;;13.06;100.00
11198;BME280;5655;48.744;9.162;2023-05-01T05:14:30;95930.63;;;13.14;100.00
11198;BME280;5655;48.744;9.162;2023-05-01T05:16:55;95933.00;;;12.84;100.00
11198;BME280;5655;48.744;9.162;2023-05-01T05:19:21;95931.00;;;13.16;100.00
11198;BME280;5655;48.744;9.162;2023-05-01T05:21:46;95926.81;;;12.98;100.00
11198;BME280;5655;48.744;9.162;2023-05-01T05:24:12;95923.75;;;12.92;100.00
11198;BME280;5655;48.744;9.162;2023-05-01T05:26:37;95924.50;;;13.10;100.00
11198;BME280;5655;48.744;9.162;2023-05-01T05:29:03;95922.28;;;12.63;100.00
11198;BME280;5655;48.744;9.162;2023-05-01T05:31:28;95938.34;;;12.77;100.00
11198;BME280;5655;48.744;9.162;2023-05-01T05:33:53;95927.19;;;12.96;100.00
11198;BME280;5655;48.744;9.162;2023-05-01T05:36:19;95928.38;;;12.88;100.00
11198;BME280;5655;48.744;9.162;2023-05-01T05:38:44;95922.97;;;12.95;100.00
11198;BME280;5655;48.744;9.162;2023-05-01T05:41:10;95929.88;;;13.10;100.00
11198;BME280;5655;48.744;9.162;2023-05-01T05:43:35;95938.25;;;13.27;100.00
11198;BME280;5655;48.744;9.162;2023-05-01T05:46:01;95936.06;;;12.90;100.00
11198;BME280;5655;48.744;9.162;2023-05-01T05:48:26;95934.47;;;12.99;100.00
11198;BME280;5655;48.744;9.162;2023-05-01T05:50:52;95928.34;;;12.95;100.00
11198;BME280;5655;48.744;9.162;2023-05-01T05:53:20;95924.84;;;13.23;100.00
11198;BME280;5655;48.744;9.162;2023-05-01T05:55:46;95930.66;;;12.86;100.00
11198;BME280;5655;48.744;9.162;2023-05-01T05:58:12;95929.53;;;12.87;100.00
11198;BME280;5655;48.744;9.162;2023-05-01T06:00:39;95927.97;;;12.97;100.00
11198;BME280;5655;48.744;9.162;2023-05-01T06:03:04;95923.78;;;12.82;100.00
11198;BME280;5655;48.744;9.162;2023-05-01T06:05:29;95921.09;;;12.82;100.00
11198;BME280;5655;48.744;9.162;2023-05-01T06:07:55;95926.88;;;12.66;100.00
11198;BME280;5655;48.744;9.162;2023-05-01T06:10:21;95922.25;;;12.77;100.00
11198;BME280;5655;48.744;9.162;2023-05-01T06:12:46;95925.69;;;12.88;100.00
11198;BME280;5655;48.744;9.162;2023-05-01T06:15:12;95923.41;;;12.69;100.00
11198;BME280;5655;48.744;9.162;2023-05-01T06:17:41;95923.41;;;12.76;100.00
11198;BME280;5655;48.744;9.162;2023-05-01T06:20:07;95922.28;;;12.56;100.00
11198;BME280;5655;48.744;9.162;2023-05-01T06:22:33;95921.13;;;12.60;100.00
11198;BME280;5655;48.744;9.162;2023-05-01T06:24:58;95917.31;;;12.58;100.00
11198;BME280;5655;48.744;9.162;2023-05-01T06:27:24;95924.19;;;12.66;100.00
11198;BME280;5655;48.744;9.162;2023-05-01T06:29:49;95921.91;;;12.54;100.00
11198;BME280;5655;48.744;9.162;2023-05-01T06:32:15;95916.56;;;12.50;100.00
11198;BME280;5655;48.744;9.162;2023-05-01T06:34:40;95921.53;;;12.48;100.00
11198;BME280;5655;48.744;9.162;2023-05-01T06:37:06;95921.53;;;12.52;100.00
11198;BME280;5655;48.744;9.162;2023-05-01T06:39:32;95923.41;;;12.76;100.00
11198;BME280;5655;48.744;9.162;2023-05-01T06:41:58;95918.44;;;12.57;100.00
11198;BME280;5655;48.744;9.162;2023-05-01T06:44:23;95928.47;;;12.42;100.00
11198;BME280;5655;48.744;9.162;2023-05-01T06:46:48;95931.50;;;12.26;100.00
11198;BME280;5655;48.744;9.162;2023-05-01T06:49:14;95918.84;;;12.45;100.00
11198;BME280;5655;48.744;9.162;2023-05-01T06:51:39;95923.84;;;12.39;100.00
11198;BME280;5655;48.744;9.162;2023-05-01T06:54:04;95928.06;;;12.30;100.00
11198;BME280;5655;48.744;9.162;2023-05-01T06:56:29;95933.78;;;12.53;100.00
11198;BME280;5655;48.744;9.162;2023-05-01T06:58:56;95933.00;;;12.70;100.00
11198;BME280;5655;48.744;9.162;2023-05-01T07:01:21;95939.94;;;12.46;100.00
11198;BME280;5655;48.744;9.162;2023-05-01T07:03:47;95939.94;;;12.57;100.00
11198;BME280;5655;48.744;9.162;2023-05-01T07:06:12;95938.38;;;12.56;100.00
11198;BME280;5655;48.744;9.162;2023-05-01T07:08:38;95940.72;;;12.54;100.00
11198;BME280;5655;48.744;9.162;2023-05-01T07:11:03;95933.03;;;12.66;100.00
11198;BME280;5655;48.744;9.162;2023-05-01T07:13:29;95946.03;;;12.82;100.00
11198;BME280;5655;48.744;9.162;2023-05-01T07:15:54;95938.44;;;12.38;100.00
11198;BME280;5655;48.744;9.162;2023-05-01T07:18:19;95942.97;;;12.73;100.00
11198;BME280;5655;48.744;9.162;2023-05-01T07:20:44;95949.88;;;12.74;100.00
11198;BME280;5655;48.744;9.162;2023-05-01T07:23:10;95950.66;;;12.85;100.00
11198;BME280;5655;48.744;9.162;2023-05-01T07:25:35;95944.47;;;12.92;100.00
11198;BME280;5655;48.744;9.162;2023-05-01T07:28:08;95944.84;;;12.90;100.00
11198;BME280;5655;48.744;9.162;2023-05-01T07:30:35;95942.22;;;12.80;100.00
11198;BME280;5655;48.744;9.162;2023-05-01T07:33:00;95939.47;;;13.15;100.00
11198;BME280;5655;48.744;9.162;2023-05-01T07:35:26;95942.91;;;13.15;100.00
11198;BME280;5655;48.744;9.162;2023-05-01T07:37:51;95937.56;;;12.91;100.00
11198;BME280;5655;48.744;9.162;2023-05-01T07:40:17;95934.44;;;13.21;100.00
11198;BME280;5655;48.744;9.162;2023-05-01T07:42:43;95941.31;;;13.25;100.00
11198;BME280;5655;48.744;9.162;2023-05-01T07:45:08;95932.91;;;13.16;100.00
11198;BME280;5655;48.744;9.162;2023-05-01T07:47:34;95940.56;;;13.25;100.00
11198;BME280;5655;48.744;9.162;2023-05-01T07:49:59;95941.00;;;13.20;100.00
11198;BME280;5655;48.744;9.162;2023-05-01T07:52:28;95936.63;;;13.50;100.00
11198;BME280;5655;48.744;9.162;2023-05-01T07:54:53;95946.13;;;13.69;100.00
11198;BME280;5655;48.744;9.162;2023-05-01T07:57:18;95932.84;;;13.41;100.00
11198;BME280;5655;48.744;9.162;2023-05-01T07:59:44;95936.91;;;13.70;100.00
11198;BME280;5655;48.744;9.162;2023-05-01T08:02:09;95941.06;;;13.82;100.00
11198;BME280;5655;48.744;9.162;2023-05-01T08:04:34;95939.22;;;13.68;100.00
11198;BME280;5655;48.744;9.162;2023-05-01T08:07:00;95941.13;;;13.71;100.00
11198;BME280;5655;48.744;9.162;2023-05-01T08:09:25;95943.34;;;13.87;100.00
11198;BME280;5655;48.744;9.162;2023-05-01T08:11:50;95940.28;;;13.81;100.00
11198;BME280;5655;48.744;9.162;2023-05-01T08:14:15;95949.50;;;13.87;100.00
11198;BME280;5655;48.744;9.162;2023-05-01T08:16:42;95947.22;;;13.82;100.00
11198;BME280;5655;48.744;9.162;2023-05-01T08:19:08;95941.38;;;13.94;100.00
11198;BME280;5655;48.744;9.162;2023-05-01T08:21:33;95938.53;;;14.16;100.00
11198;BME280;5655;48.744;9.162;2023-05-01T08:23:58;95941.66;;;14.07;100.00
11198;BME280;5655;48.744;9.162;2023-05-01T08:26:24;95937.78;;;14.12;100.00
11198;BME280;5655;48.744;9.162;2023-05-01T08:28:49;95928.66;;;13.98;100.00
11198;BME280;5655;48.744;9.162;2023-05-01T08:31:15;95941.06;;;14.44;100.00
11198;BME280;5655;48.744;9.162;2023-05-01T08:33:40;95941.03;;;14.47;100.00
11198;BME280;5655;48.744;9.162;2023-05-01T08:36:09;95943.00;;;14.40;100.00
11198;BME280;5655;48.744;9.162;2023-05-01T08:38:35;95936.47;;;14.37;100.00
11198;BME280;5655;48.744;9.162;2023-05-01T08:41:00;95937.47;;;14.54;100.00
11198;BME280;5655;48.744;9.162;2023-05-01T08:43:32;95938.38;;;15.19;100.00
11198;BME280;5655;48.744;9.162;2023-05-01T08:45:58;95924.66;;;15.10;100.00
11198;BME280;5655;48.744;9.162;2023-05-01T08:48:28;95931.63;;;15.04;100.00
11198;BME280;5655;48.744;9.162;2023-05-01T08:50:55;95939.28;;;15.09;100.00
11198;BME280;5655;48.744;9.162;2023-05-01T08:53:25;95934.31;;;15.37;100.00
11198;BME280;5655;48.744;9.162;2023-05-01T08:55:51;95936.13;;;15.51;100.00
11198;BME280;5655;48.744;9.162;2023-05-01T08:58:18;95938.16;;;15.40;100.00
11198;BME280;5655;48.744;9.162;2023-05-01T09:00:46;95932.19;;;15.56;100.00
11198;BME280;5655;48.744;9.162;2023-05-01T09:03:12;95926.19;;;15.71;100.00
11198;BME280;5655;48.744;9.162;2023-05-01T09:05:40;95931.56;;;15.75;100.00
11198;BME280;5655;48.744;9.162;2023-05-01T09:08:06;95938.34;;;15.86;100.00
11198;BME280;5655;48.744;9.162;2023-05-01T09:10:32;95939.13;;;15.83;100.00
11198;BME280;5655;48.744;9.162;2023-05-01T09:13:00;95940.31;;;16.09;100.00
11198;BME280;5655;48.744;9.162;2023-05-01T09:15:26;95944.03;;;15.65;100.00
11198;BME280;5655;48.744;9.162;2023-05-01T09:17:53;95931.41;;;15.85;100.00
11198;BME280;5655;48.744;9.162;2023-05-01T09:20:18;95936.91;;;15.78;100.00
11198;BME280;5655;48.744;9.162;2023-05-01T09:22:44;95938.94;;;15.98;100.00
11198;BME280;5655;48.744;9.162;2023-05-01T09:25:09;95937.94;;;16.15;100.00
11198;BME280;5655;48.744;9.162;2023-05-01T09:27:37;95937.38;;;16.00;100.00
11198;BME280;5655;48.744;9.162;2023-05-01T09:30:04;95945.34;;;16.34;100.00
11198;BME280;5655;48.744;9.162;2023-05-01T09:32:32;95943.38;;;16.11;100.00
11198;BME280;5655;48.744;9.162;2023-05-01T09:35:12;95940.69;;;16.85;100.00
11198;BME280;5655;48.744;9.162;2023-05-01T09:37:38;95949.19;;;16.83;100.00
11198;BME280;5655;48.744;9.162;2023-05-01T09:42:31;95946.53;;;17.03;100.00
11198;BME280;5655;48.744;9.162;2023-05-01T09:44:58;95942.94;;;17.09;100.00
11198;BME280;5655;48.744;9.162;2023-05-01T09:47:24;95934.69;;;17.76;100.00
11198;BME280;5655;48.744;9.162;2023-05-01T09:49:54;95942.44;;;17.74;100.00
11198;BME280;5655;48.744;9.162;2023-05-01T09:52:21;95936.16;;;17.41;100.00
11198;BME280;5655;48.744;9.162;2023-05-01T09:54:46;95933.44;;;17.21;100.00
11198;BME280;5655;48.744;9.162;2023-05-01T09:57:12;95931.22;;;16.50;100.00
11198;BME280;5655;48.744;9.162;2023-05-01T09:59:37;95935.06;;;16.49;100.00
11198;BME280;5655;48.744;9.162;2023-05-01T10:02:03;95930.56;;;16.89;100.00
11198;BME280;5655;48.744;9.162;2023-05-01T10:04:33;95933.75;;;16.84;100.00
11198;BME280;5655;48.744;9.162;2023-05-01T10:07:12;95934.06;;;17.29;100.00
11198;BME280;5655;48.744;9.162;2023-05-01T10:09:38;95933.41;;;16.82;100.00
11198;BME280;5655;48.744;9.162;2023-05-01T10:12:03;95934.88;;;16.63;100.00
11198;BME280;5655;48.744;9.162;2023-05-01T10:14:29;95937.75;;;16.75;100.00
11198;BME280;5655;48.744;9.162;2023-05-01T10:16:58;95930.94;;;16.67;100.00
11198;BME280;5655;48.744;9.162;2023-05-01T10:19:23;95935.75;;;16.79;100.00
11198;BME280;5655;48.744;9.162;2023-05-01T10:21:49;95930.34;;;16.56;100.00
11198;BME280;5655;48.744;9.162;2023-05-01T10:24:14;95939.44;;;16.66;100.00
11198;BME280;5655;48.744;9.162;2023-05-01T10:26:41;95935.13;;;16.72;100.00
11198;BME280;5655;48.744;9.162;2023-05-01T10:29:07;95940.44;;;16.99;100.00
11198;BME280;5655;48.744;9.162;2023-05-01T10:31:33;95942.16;;;16.89;100.00
11198;BME280;5655;48.744;9.162;2023-05-01T10:34:00;95943.34;;;16.65;100.00
11198;BME280;5655;48.744;9.162;2023-05-01T10:36:31;95945.38;;;16.81;100.00
11198;BME280;5655;48.744;9.162;2023-05-01T10:38:58;95942.00;;;16.96;100.00
11198;BME280;5655;48.744;9.162;2023-05-01T10:42:02;95943.00;;;17.45;100.00
11198;BME280;5655;48.744;9.162;2023-05-01T10:44:28;95939.50;;;16.86;100.00
11198;BME280;5655;48.744;9.162;2023-05-01T10:46:53;95938.59;;;16.92;100.00
11198;BME280;5655;48.744;9.162;2023-05-01T10:49:19;95941.75;;;16.67;100.00
11198;BME280;5655;48.744;9.162;2023-05-01T10:54:30;95943.22;;;17.15;100.00
11198;BME280;5655;48.744;9.162;2023-05-01T10:57:00;95933.03;;;17.42;100.00
11198;BME280;5655;48.744;9.162;2023-05-01T11:00:09;95937.13;;;17.11;100.00
11198;BME280;5655;48.744;9.162;2023-05-01T11:02:21;95940.75;;;17.01;100.00
11198;BME280;5655;48.744;9.162;2023-05-01T11:04:48;95940.09;;;17.16;100.00
11198;BME280;5655;48.744;9.162;2023-05-01T11:07:16;95937.47;;;17.33;100.00
11198;BME280;5655;48.744;9.162;2023-05-01T11:12:09;95924.34;;;17.31;100.00
11198;BME280;5655;48.744;9.162;2023-05-01T11:20:04;95920.13;;;17.10;100.00
11198;BME280;5655;48.744;9.162;2023-05-01T11:22:31;95927.53;;;17.26;100.00
11198;BME280;5655;48.744;9.162;2023-05-01T11:24:56;95924.50;;;17.24;100.00
11198;BME280;5655;48.744;9.162;2023-05-01T11:27:22;95923.81;;;17.20;100.00
11198;BME280;5655;48.744;9.162;2023-05-01T11:29:48;95917.63;;;17.19;100.00
11198;BME280;5655;48.744;9.162;2023-05-01T11:32:17;95916.56;;;17.13;100.00
11198;BME280;5655;48.744;9.162;2023-05-01T11:34:43;95921.97;;;16.94;100.00
11198;BME280;5655;48.744;9.162;2023-05-01T11:37:08;95915.47;;;17.11;100.00
11198;BME280;5655;48.744;9.162;2023-05-01T11:39:34;95916.88;;;17.19;100.00
11198;BME280;5655;48.744;9.162;2023-05-01T11:42:08;95920.88;;;17.11;100.00
11198;BME280;5655;48.744;9.162;2023-05-01T11:44:34;95920.34;;;17.19;100.00
11198;BME280;5655;48.744;9.162;2023-05-01T11:46:59;95919.34;;;17.10;100.00
11198;BME280;5655;48.744;9.162;2023-05-01T11:49:26;95924.28;;;16.95;100.00
11198;BME280;5655;48.744;9.162;2023-05-01T11:51:57;95920.63;;;17.25;100.00
11198;BME280;5655;48.744;9.162;2023-05-01T11:54:23;95919.28;;;17.13;100.00
11198;BME280;5655;48.744;9.162;2023-05-01T11:56:57;95920.63;;;17.25;100.00
11198;BME280;5655;48.744;9.162;2023-05-01T11:59:23;95929.84;;;17.08;100.00
11198;BME280;5655;48.744;9.162;2023-05-01T12:01:50;95922.34;;;17.15;100.00
11198;BME280;5655;48.744;9.162;2023-05-01T12:04:23;95924.59;;;17.56;100.00
11198;BME280;5655;48.744;9.162;2023-05-01T12:06:48;95920.66;;;17.21;100.00
11198;BME280;5655;48.744;9.162;2023-05-01T12:09:17;95923.53;;;16.71;100.00
11198;BME280;5655;48.744;9.162;2023-05-01T12:11:45;95912.34;;;16.93;100.00
11198;BME280;5655;48.744;9.162;2023-05-01T12:14:11;95909.91;;;17.18;100.00
11198;BME280;5655;48.744;9.162;2023-05-01T12:16:38;95922.53;;;17.05;100.00
11198;BME280;5655;48.744;9.162;2023-05-01T12:19:05;95911.03;;;17.01;100.00
11198;BME280;5655;48.744;9.162;2023-05-01T12:21:31;95916.44;;;17.01;100.00
11198;BME280;5655;48.744;9.162;2023-05-01T12:24:06;95915.97;;;17.26;100.00
11198;BME280;5655;48.744;9.162;2023-05-01T12:26:31;95908.97;;;17.28;100.00
11198;BME280;5655;48.744;9.162;2023-05-01T12:29:01;95915.31;;;17.57;100.00
11198;BME280;5655;48.744;9.162;2023-05-01T12:31:28;95915.25;;;17.41;100.00
11198;BME280;5655;48.744;9.162;2023-05-01T12:33:58;95909.00;;;17.44;100.00
11198;BME280;5655;48.744;9.162;2023-05-01T12:36:26;95913.44;;;17.54;100.00
11198;BME280;5655;48.744;9.162;2023-05-01T12:39:00;95912.91;;;17.99;100.00
11198;BME280;5655;48.744;9.162;2023-05-01T12:41:40;95907.31;;;18.06;100.00
11198;BME280;5655;48.744;9.162;2023-05-01T12:46:43;95917.28;;;17.93;100.00
11198;BME280;5655;48.744;9.162;2023-05-01T12:49:15;95914.09;;;18.14;100.00
11198;BME280;5655;48.744;9.162;2023-05-01T12:51:45;95917.56;;;17.62;100.00
11198;BME280;5655;48.744;9.162;2023-05-01T12:54:11;95909.56;;;17.36;100.00
11198;BME280;5655;48.744;9.162;2023-05-01T12:56:38;95911.88;;;17.37;100.00
11198;BME280;5655;48.744;9.162;2023-05-01T12:59:03;95912.78;;;16.91;100.00
11198;BME280;5655;48.744;9.162;2023-05-01T13:01:29;95910.91;;;17.47;100.00
11198;BME280;5655;48.744;9.162;2023-05-01T13:03:54;95905.75;;;17.73;100.00
11198;BME280;5655;48.744;9.162;2023-05-01T13:06:30;95897.44;;;17.63;100.00
11198;BME280;5655;48.744;9.162;2023-05-01T13:09:06;95913.97;;;17.85;100.00
11198;BME280;5655;48.744;9.162;2023-05-01T13:11:33;95902.16;;;17.20;100.00
11198;BME280;5655;48.744;9.162;2023-05-01T13:14:06;95904.28;;;17.48;100.00
11198;BME280;5655;48.744;9.162;2023-05-01T13:16:31;95900.09;;;17.08;100.00
11198;BME280;5655;48.744;9.162;2023-05-01T13:18:57;95910.34;;;16.97;100.00
11198;BME280;5655;48.744;9.162;2023-05-01T13:21:23;95910.22;;;17.04;100.00
11198;BME280;5655;48.744;9.162;2023-05-01T13:23:57;95902.44;;;17.06;100.00
11198;BME280;5655;48.744;9.162;2023-05-01T13:26:27;95899.88;;;17.18;100.00
11198;BME280;5655;48.744;9.162;2023-05-01T13:28:53;95914.47;;;16.82;100.00
11198;BME280;5655;48.744;9.162;2023-05-01T13:31:19;95902.72;;;16.45;100.00